Time;durP1;ratioP1;P1;durP2;ratioP2;P2;SDS_P1;SDS_P2;PMS_P1;PMS_P2;Temp;Humidity;BMP_temperature;BMP_pressure;BME280_temperature;BME280_humidity;BME280_pressure;Samples;Min_cycle;Max_cycle;Signal;HPM_P1;HPM_P2
2023/10/23 00:00:46;;;;;;;0.40;0.40;;;17.60;56.30;;;;;;6083585;23;20167;-86
2023/10/23 00:03:13;;;;;;;0.98;0.55;;;17.60;56.30;;;;;;6107931;23;20207;-85
2023/10/23 00:05:39;;;;;;;0.85;0.60;;;17.50;56.30;;;;;;6059077;23;20585;-86
2023/10/23 00:08:06;;;;;;;0.60;0.60;;;17.60;56.30;;;;;;6106912;23;20144;-87
2023/10/23 00:10:32;;;;;;;0.70;0.70;;;17.50;56.30;;;;;;6107387;23;20136;-87
2023/10/23 00:12:58;;;;;;;0.60;0.60;;;17.50;56.20;;;;;;6087618;23;20189;-86
2023/10/23 00:15:24;;;;;;;1.23;0.60;;;17.60;56.30;;;;;;6106701;23;20220;-86
2023/10/23 00:17:54;;;;;;;0.57;0.57;;;17.50;56.30;;;;;;6108049;23;20128;-85
2023/10/23 00:20:20;;;;;;;0.60;0.57;;;17.60;56.30;;;;;;6082316;23;20487;-85
2023/10/23 00:22:50;;;;;;;1.35;0.50;;;17.60;56.30;;;;;;6130110;23;20164;-85
2023/10/23 00:25:16;;;;;;;1.65;0.50;;;17.50;56.90;;;;;;6028907;23;20153;-88
2023/10/23 00:27:48;;;;;;;1.30;0.43;;;17.50;56.40;;;;;;6077737;23;20210;-85
2023/10/23 00:30:18;;;;;;;0.90;0.60;;;17.50;56.40;;;;;;6033349;23;20155;-87
2023/10/23 00:32:44;;;;;;;1.33;0.65;;;17.50;56.40;;;;;;6081311;23;20190;-85
2023/10/23 00:35:16;;;;;;;0.50;0.50;;;17.50;56.40;;;;;;6105543;23;20160;-87
2023/10/23 00:37:42;;;;;;;0.60;0.60;;;17.50;56.40;;;;;;6080604;23;20160;-85
2023/10/23 00:40:12;;;;;;;0.50;0.50;;;17.60;56.40;;;;;;6081431;23;20608;-85
2023/10/23 00:42:38;;;;;;;0.73;0.73;;;17.60;56.30;;;;;;6105059;23;20179;-85
2023/10/23 00:45:04;;;;;;;0.60;0.60;;;17.60;56.20;;;;;;6080389;23;20200;-85
2023/10/23 00:47:30;;;;;;;0.50;0.50;;;17.60;56.20;;;;;;6113405;23;20277;-87
2023/10/23 00:49:57;;;;;;;1.00;0.60;;;17.60;56.30;;;;;;6108283;23;20155;-85
2023/10/23 00:52:27;;;;;;;0.75;0.50;;;17.60;56.30;;;;;;6133324;23;20175;-86
2023/10/23 00:54:52;;;;;;;0.50;0.50;;;17.50;56.20;;;;;;6133395;23;20156;-85
2023/10/23 00:57:22;;;;;;;0.65;0.60;;;17.50;56.30;;;;;;6139030;23;20197;-86
2023/10/23 00:59:50;;;;;;;0.40;0.40;;;17.50;56.30;;;;;;6114742;23;20150;-85
2023/10/23 01:02:24;;;;;;;0.50;0.50;;;17.50;56.40;;;;;;6115509;23;20178;-85
2023/10/23 01:04:50;;;;;;;1.23;0.60;;;17.50;56.50;;;;;;6090430;23;20165;-86
2023/10/23 01:07:16;;;;;;;0.50;0.50;;;17.50;56.40;;;;;;6115113;23;20154;-85
2023/10/23 01:09:43;;;;;;;0.90;0.57;;;17.50;56.40;;;;;;6139029;23;20139;-85
2023/10/23 01:12:08;;;;;;;0.60;0.60;;;17.50;56.40;;;;;;6114703;23;20178;-86
2023/10/23 01:14:36;;;;;;;0.55;0.55;;;17.50;56.40;;;;;;6113700;23;20146;-86
2023/10/23 01:17:02;;;;;;;0.60;0.60;;;17.50;56.40;;;;;;6139402;23;20128;-85
2023/10/23 01:19:28;;;;;;;0.60;0.60;;;17.50;56.40;;;;;;6139411;23;20138;-87
2023/10/23 01:21:55;;;;;;;0.77;0.50;;;17.50;56.50;;;;;;6113797;23;20245;-85
2023/10/23 01:24:22;;;;;;;0.75;0.60;;;17.50;56.40;;;;;;6089350;23;20158;-87
2023/10/23 01:26:47;;;;;;;0.40;0.40;;;17.50;56.40;;;;;;6113219;23;20165;-85
2023/10/23 01:29:14;;;;;;;0.43;0.43;;;17.50;56.40;;;;;;6138967;23;20151;-86
2023/10/23 01:31:43;;;;;;;0.40;0.40;;;17.50;56.40;;;;;;6138870;23;20201;-85
2023/10/23 01:34:09;;;;;;;0.75;0.50;;;17.50;56.40;;;;;;6089854;23;20150;-86
2023/10/23 01:36:37;;;;;;;0.60;0.60;;;17.40;56.30;;;;;;6139571;23;20135;-86
2023/10/23 01:39:04;;;;;;;0.60;0.50;;;17.50;56.40;;;;;;6140143;23;20150;-86
2023/10/23 01:41:30;;;;;;;0.82;0.50;;;17.50;56.50;;;;;;6115953;23;20147;-86
2023/10/23 01:43:56;;;;;;;0.77;0.43;;;17.50;56.40;;;;;;6140290;23;20193;-86
2023/10/23 01:46:22;;;;;;;0.50;0.50;;;17.50;56.40;;;;;;6141392;23;20143;-85
2023/10/23 01:48:50;;;;;;;0.43;0.43;;;17.50;56.40;;;;;;6110681;23;20199;-86
2023/10/23 01:51:18;;;;;;;1.38;0.70;;;17.50;56.50;;;;;;6135392;23;20143;-86
2023/10/23 01:53:45;;;;;;;0.40;0.40;;;17.40;56.40;;;;;;6034791;23;20156;-85
2023/10/23 01:56:17;;;;;;;0.50;0.50;;;17.50;56.50;;;;;;6135883;23;20191;-85
2023/10/23 01:58:45;;;;;;;0.50;0.50;;;17.50;56.50;;;;;;6111297;23;20514;-86
2023/10/23 02:01:20;;;;;;;0.50;0.50;;;17.50;57.10;;;;;;6087014;23;20152;-86
2023/10/23 02:03:46;;;;;;;1.17;0.60;;;17.50;56.50;;;;;;6110636;23;20151;-85
2023/10/23 02:06:15;;;;;;;0.60;0.50;;;17.50;56.50;;;;;;6046653;23;20232;-86
2023/10/23 02:08:44;;;;;;;0.47;0.45;;;17.50;56.50;;;;;;6046915;23;20232;-85
2023/10/23 02:11:12;;;;;;;0.68;0.50;;;17.50;56.50;;;;;;5999537;23;20582;-85
2023/10/23 02:13:39;;;;;;;0.47;0.47;;;17.50;56.50;;;;;;6047058;23;20146;-85
2023/10/23 02:16:08;;;;;;;0.50;0.50;;;17.50;56.50;;;;;;6047179;23;20164;-86
2023/10/23 02:18:40;;;;;;;0.55;0.50;;;17.50;56.40;;;;;;6023577;23;20217;-85
2023/10/23 02:21:06;;;;;;;0.65;0.65;;;17.50;56.50;;;;;;5979295;23;20161;-86
2023/10/23 02:23:34;;;;;;;0.77;0.57;;;17.50;56.50;;;;;;6025181;23;20160;-86
2023/10/23 02:26:02;;;;;;;0.50;0.50;;;17.50;56.50;;;;;;6048584;23;20162;-86
2023/10/23 02:28:28;;;;;;;0.88;0.50;;;17.50;56.50;;;;;;5979049;23;20161;-84
2023/10/23 02:30:56;;;;;;;0.70;0.50;;;17.40;56.40;;;;;;6025399;23;20142;-86
2023/10/23 02:33:25;;;;;;;0.50;0.50;;;17.50;56.50;;;;;;6048443;23;20670;-86
2023/10/23 02:35:51;;;;;;;0.47;0.40;;;17.50;56.50;;;;;;6025264;23;20149;-86
2023/10/23 02:38:18;;;;;;;0.77;0.50;;;17.50;56.60;;;;;;6132184;23;20148;-86
2023/10/23 02:40:53;;;;;;;0.40;0.40;;;17.40;56.60;;;;;;6088719;23;20148;-86
2023/10/23 02:43:26;;;;;;;0.40;0.40;;;17.40;56.60;;;;;;6058369;23;20175;-85
2023/10/23 02:45:53;;;;;;;0.88;0.40;;;17.50;56.60;;;;;;6085348;23;20243;-87
2023/10/23 02:48:21;;;;;;;0.80;0.70;;;17.40;56.50;;;;;;6125186;23;20190;-86
2023/10/23 02:50:53;;;;;;;0.65;0.45;;;17.40;56.60;;;;;;6086811;23;20159;-85
2023/10/23 02:53:19;;;;;;;0.57;0.50;;;17.50;56.60;;;;;;6152061;23;20170;-85
2023/10/23 02:55:46;;;;;;;0.52;0.52;;;17.50;56.60;;;;;;6111329;23;20143;-87
2023/10/23 02:58:13;;;;;;;1.02;0.60;;;17.50;56.60;;;;;;6110886;23;20175;-86
2023/10/23 03:00:41;;;;;;;1.02;0.60;;;17.50;56.60;;;;;;6112518;23;20235;-84
2023/10/23 03:03:07;;;;;;;1.33;0.50;;;17.40;56.40;;;;;;6136128;23;20584;-85
2023/10/23 03:05:33;;;;;;;0.45;0.45;;;17.50;56.60;;;;;;6136300;23;20171;-86
2023/10/23 03:08:03;;;;;;;0.60;0.57;;;17.40;56.50;;;;;;6135540;23;20148;-86
2023/10/23 03:10:30;;;;;;;0.52;0.50;;;17.40;56.70;;;;;;6134571;23;20218;-85
2023/10/23 03:12:59;;;;;;;0.60;0.60;;;17.40;56.60;;;;;;6111126;23;20185;-84
2023/10/23 03:15:25;;;;;;;0.60;0.60;;;17.40;56.60;;;;;;6136499;23;20143;-85
2023/10/23 03:17:52;;;;;;;0.57;0.57;;;17.40;56.50;;;;;;6111580;23;20147;-87
2023/10/23 03:20:18;;;;;;;0.70;0.60;;;17.40;56.50;;;;;;6127502;23;20144;-85
2023/10/23 03:22:44;;;;;;;0.68;0.50;;;17.50;56.60;;;;;;6111422;23;20147;-86
2023/10/23 03:25:10;;;;;;;0.40;0.40;;;17.40;56.40;;;;;;6136096;23;20150;-87
2023/10/23 03:27:43;;;;;;;0.70;0.60;;;17.50;56.60;;;;;;6135910;23;20147;-85
2023/10/23 03:30:11;;;;;;;1.00;0.60;;;17.40;56.50;;;;;;6110164;23;20158;-85
2023/10/23 03:32:38;;;;;;;0.85;0.50;;;17.40;56.50;;;;;;6134598;23;20202;-84
2023/10/23 03:35:04;;;;;;;0.70;0.70;;;17.40;56.60;;;;;;6110731;23;20575;-85
2023/10/23 03:37:41;;;;;;;0.50;0.50;;;17.40;56.50;;;;;;6134948;23;20154;-84
2023/10/23 03:40:10;;;;;;;0.60;0.57;;;17.40;56.60;;;;;;6161798;23;20155;-86
2023/10/23 03:42:36;;;;;;;0.88;0.55;;;17.40;56.60;;;;;;6134608;23;20187;-85
2023/10/23 03:45:04;;;;;;;1.50;0.50;;;17.40;56.60;;;;;;6134455;23;20166;-84
2023/10/23 03:47:37;;;;;;;0.40;0.40;;;17.40;56.70;;;;;;6164049;23;20205;-86
2023/10/23 03:50:04;;;;;;;0.60;0.60;;;17.40;56.70;;;;;;6167313;23;20218;-86
2023/10/23 03:52:33;;;;;;;0.60;0.60;;;17.40;56.60;;;;;;6116387;23;20193;-86
2023/10/23 03:55:07;;;;;;;0.80;0.70;;;17.40;56.70;;;;;;6075633;23;20183;-87
2023/10/23 03:57:37;;;;;;;0.70;0.70;;;17.40;56.70;;;;;;6075997;23;20157;-86
2023/10/23 04:00:05;;;;;;;0.57;0.50;;;17.50;56.80;;;;;;6076699;23;20157;-85
2023/10/23 04:02:34;;;;;;;0.50;0.50;;;17.30;56.60;;;;;;6047187;23;20223;-86
2023/10/23 04:05:03;;;;;;;0.60;0.50;;;17.40;56.70;;;;;;5986434;24;20496;-85
2023/10/23 04:07:35;;;;;;;0.68;0.68;;;17.40;56.60;;;;;;5963003;24;20159;-86
2023/10/23 04:10:01;;;;;;;0.47;0.47;;;17.40;56.70;;;;;;5961179;24;20242;-86
2023/10/23 04:12:29;;;;;;;1.67;0.63;;;17.40;56.60;;;;;;5959593;24;20572;-86
2023/10/23 04:15:00;;;;;;;0.70;0.63;;;17.40;56.70;;;;;;5936779;24;20160;-85
2023/10/23 04:17:29;;;;;;;0.43;0.43;;;17.40;56.70;;;;;;5982849;24;20204;-85
2023/10/23 04:19:55;;;;;;;0.60;0.60;;;17.40;56.70;;;;;;5982883;24;20156;-86
2023/10/23 04:22:20;;;;;;;0.70;0.52;;;17.40;56.70;;;;;;5959417;24;20190;-85
2023/10/23 04:24:47;;;;;;;0.80;0.60;;;17.40;56.70;;;;;;5984275;23;20152;-85
2023/10/23 04:27:13;;;;;;;0.90;0.50;;;17.40;56.70;;;;;;6015413;23;20162;-85
2023/10/23 04:29:39;;;;;;;0.45;0.45;;;17.40;56.70;;;;;;6015951;23;20139;-86
2023/10/23 04:32:05;;;;;;;0.70;0.60;;;17.40;56.70;;;;;;6015755;23;20208;-86
2023/10/23 04:34:35;;;;;;;0.60;0.55;;;17.40;56.60;;;;;;6068425;23;20159;-86
2023/10/23 04:37:05;;;;;;;0.40;0.40;;;17.40;56.70;;;;;;6001677;23;20239;-87
2023/10/23 04:39:31;;;;;;;0.70;0.60;;;17.40;56.60;;;;;;6048275;23;20153;-86
2023/10/23 04:41:57;;;;;;;0.60;0.60;;;17.50;56.60;;;;;;6048607;23;20212;-86
2023/10/23 04:44:26;;;;;;;0.50;0.45;;;17.40;56.70;;;;;;6048301;23;20160;-86
2023/10/23 04:46:52;;;;;;;0.55;0.55;;;17.40;56.70;;;;;;6072397;23;20925;-86
2023/10/23 04:49:22;;;;;;;0.60;0.60;;;17.30;56.70;;;;;;6093819;23;20255;-86
2023/10/23 04:51:48;;;;;;;1.13;0.50;;;17.40;56.70;;;;;;6109829;23;20182;-86
2023/10/23 04:54:14;;;;;;;0.50;0.50;;;17.40;56.80;;;;;;6111654;23;20150;-86
2023/10/23 04:56:41;;;;;;;0.60;0.50;;;17.30;56.70;;;;;;6112882;23;20153;-86
2023/10/23 04:59:07;;;;;;;0.50;0.50;;;17.40;56.80;;;;;;6112261;23;20201;-87
2023/10/23 05:01:33;;;;;;;0.65;0.60;;;17.40;56.70;;;;;;6112166;23;20154;-86
2023/10/23 05:03:59;;;;;;;0.50;0.50;;;17.30;56.70;;;;;;6136488;23;20135;-86
2023/10/23 05:06:26;;;;;;;0.57;0.57;;;17.30;56.70;;;;;;6112852;23;20633;-87
2023/10/23 05:08:52;;;;;;;0.52;0.50;;;17.40;56.80;;;;;;6136546;23;20150;-87
2023/10/23 05:11:18;;;;;;;0.57;0.50;;;17.30;56.80;;;;;;6112440;23;20203;-85
2023/10/23 05:13:46;;;;;;;0.60;0.55;;;17.30;56.70;;;;;;6112670;23;20143;-86
2023/10/23 05:16:12;;;;;;;0.50;0.50;;;17.30;56.70;;;;;;6112883;23;20194;-86
2023/10/23 05:18:38;;;;;;;0.45;0.45;;;17.30;56.80;;;;;;6137414;23;20488;-86
2023/10/23 05:21:09;;;;;;;0.75;0.50;;;17.30;56.70;;;;;;6136902;23;20138;-87
2023/10/23 05:23:40;;;;;;;0.60;0.60;;;17.30;56.80;;;;;;6137517;23;20143;-86
2023/10/23 05:26:07;;;;;;;0.80;0.50;;;17.30;56.80;;;;;;6087700;23;20590;-85
2023/10/23 05:28:33;;;;;;;1.13;0.50;;;17.30;56.80;;;;;;6137694;23;20209;-85
2023/10/23 05:30:58;;;;;;;0.55;0.50;;;17.40;56.80;;;;;;6137265;23;20556;-87
2023/10/23 05:33:25;;;;;;;0.70;0.40;;;17.40;56.80;;;;;;6161521;23;20493;-85
2023/10/23 05:36:04;;;;;;;0.50;0.50;;;17.30;56.80;;;;;;6137121;23;20570;-85
2023/10/23 05:38:35;;;;;;;0.50;0.43;;;17.30;56.80;;;;;;6161986;23;20131;-85
2023/10/23 05:41:02;;;;;;;0.47;0.47;;;17.30;56.80;;;;;;6143376;23;20174;-85
2023/10/23 05:43:29;;;;;;;0.50;0.50;;;17.40;56.60;;;;;;6141054;23;20135;-86
2023/10/23 05:45:55;;;;;;;0.70;0.43;;;17.40;56.50;;;;;;6113689;23;20238;-85
2023/10/23 05:48:26;;;;;;;0.50;0.50;;;17.40;56.20;;;;;;6109703;23;20198;-85
2023/10/23 05:51:04;;;;;;;0.60;0.60;;;17.50;56.00;;;;;;6058958;23;20163;-86
2023/10/23 05:53:34;;;;;;;0.68;0.50;;;17.50;55.90;;;;;;6100944;23;20187;-85
2023/10/23 05:56:05;;;;;;;0.40;0.40;;;17.50;55.70;;;;;;6108543;23;20263;-85
2023/10/23 05:58:35;;;;;;;0.40;0.40;;;17.50;55.50;;;;;;6059486;23;20155;-85
2023/10/23 06:01:06;;;;;;;0.65;0.63;;;17.50;55.30;;;;;;6018808;23;20148;-86
2023/10/23 06:03:32;;;;;;;0.57;0.57;;;17.60;55.40;;;;;;6103649;23;20151;-85
2023/10/23 06:05:58;;;;;;;0.40;0.40;;;17.50;55.30;;;;;;6130464;23;20143;-84
2023/10/23 06:08:23;;;;;;;0.50;0.50;;;17.50;55.10;;;;;;6102916;23;20176;-86
2023/10/23 06:10:53;;;;;;;0.52;0.52;;;17.60;55.10;;;;;;6128245;23;20136;-86
2023/10/23 06:13:20;;;;;;;0.40;0.40;;;17.60;55.00;;;;;;6103689;23;20178;-85
2023/10/23 06:15:57;;;;;;;0.40;0.35;;;17.60;55.00;;;;;;6129010;23;20129;-84
2023/10/23 06:18:22;;;;;;;1.17;0.45;;;17.60;54.90;;;;;;6049841;23;20216;-85
2023/10/23 06:21:06;;;;;;;0.30;0.30;;;17.60;54.90;;;;;;6001825;23;20149;-86
2023/10/23 06:23:38;;;;;;;0.50;0.50;;;17.60;54.90;;;;;;6024903;23;20161;-85
2023/10/23 06:26:04;;;;;;;0.30;0.30;;;17.60;54.80;;;;;;6027855;23;20149;-87
2023/10/23 06:28:33;;;;;;;0.47;0.47;;;17.60;54.80;;;;;;6002050;23;20505;-86
2023/10/23 06:31:07;;;;;;;0.60;0.60;;;17.60;54.80;;;;;;6051154;23;20175;-88
2023/10/23 06:33:38;;;;;;;0.47;0.40;;;17.60;54.80;;;;;;6030791;23;20204;-86
2023/10/23 06:36:09;;;;;;;0.40;0.40;;;17.70;54.70;;;;;;6006673;23;20162;-89
2023/10/23 06:38:45;;;;;;;0.45;0.40;;;17.60;54.70;;;;;;6046306;23;20185;-87
2023/10/23 06:41:17;;;;;;;0.77;0.50;;;17.70;54.70;;;;;;6043655;23;20161;-87
2023/10/23 06:43:51;;;;;;;0.50;0.40;;;17.60;54.60;;;;;;6017421;23;20201;-88
2023/10/23 06:46:16;;;;;;;0.50;0.50;;;17.60;54.60;;;;;;6046537;23;20142;-86
2023/10/23 06:48:46;;;;;;;0.68;0.50;;;17.60;54.60;;;;;;6065948;23;20604;-86
2023/10/23 06:51:30;;;;;;;0.40;0.40;;;17.60;54.50;;;;;;6049615;23;20505;-89
2023/10/23 06:53:56;;;;;;;0.40;0.40;;;17.70;54.50;;;;;;5978704;23;20647;-87
2023/10/23 06:56:40;;;;;;;1.63;0.30;;;17.70;54.70;;;;;;6095501;23;20152;-86
2023/10/23 06:59:18;;;;;;;1.05;0.50;;;17.70;54.50;;;;;;6078387;23;20156;-85
2023/10/23 07:02:00;;;;;;;1.63;0.50;;;17.80;54.50;;;;;;6078102;23;20169;-86
2023/10/23 07:04:28;;;;;;;1.25;0.60;;;17.70;54.70;;;;;;6105224;23;20263;-84
2023/10/23 07:06:55;;;;;;;0.50;0.50;;;17.70;54.90;;;;;;6081028;23;20208;-85
2023/10/23 07:09:33;;;;;;;0.60;0.60;;;17.70;54.80;;;;;;6068510;23;20160;-85
2023/10/23 07:11:59;;;;;;;0.93;0.50;;;17.70;54.60;;;;;;6084072;23;20176;-85
2023/10/23 07:14:26;;;;;;;0.50;0.50;;;17.70;54.50;;;;;;6108410;23;20163;-82
2023/10/23 07:16:54;;;;;;;0.50;0.50;;;17.70;54.60;;;;;;6086825;23;20152;-84
2023/10/23 07:19:20;;;;;;;0.60;0.60;;;17.70;54.70;;;;;;6081539;23;20175;-86
2023/10/23 07:21:45;;;;;;;0.60;0.55;;;17.70;54.70;;;;;;6055258;23;20144;-85
2023/10/23 07:24:11;;;;;;;0.75;0.68;;;17.70;54.80;;;;;;6085206;23;20402;-85
2023/10/23 07:26:38;;;;;;;0.77;0.50;;;17.70;54.50;;;;;;6084255;23;20148;-83
2023/10/23 07:29:08;;;;;;;1.02;0.50;;;17.70;54.40;;;;;;6100733;23;20479;-84
2023/10/23 07:31:37;;;;;;;0.55;0.47;;;17.80;54.50;;;;;;6116060;23;20490;-86
2023/10/23 07:34:04;;;;;;;0.40;0.40;;;17.70;54.30;;;;;;6138029;23;20140;-86
2023/10/23 07:36:30;;;;;;;0.50;0.50;;;17.70;54.20;;;;;;6137547;23;20167;-88
2023/10/23 07:38:59;;;;;;;0.55;0.45;;;17.80;54.40;;;;;;6161476;23;20174;-84
2023/10/23 07:41:28;;;;;;;1.02;0.50;;;17.70;54.30;;;;;;6137178;23;20608;-83
2023/10/23 07:43:55;;;;;;;4.35;0.60;;;17.70;54.40;;;;;;6088076;23;20191;-84
2023/10/23 07:46:21;;;;;;;0.55;0.50;;;17.80;54.40;;;;;;6162596;23;20143;-86
2023/10/23 07:48:46;;;;;;;1.30;0.52;;;17.80;54.50;;;;;;6166933;23;20208;-85
2023/10/23 07:51:12;;;;;;;1.73;0.60;;;17.80;54.40;;;;;;6166878;23;20185;-85
2023/10/23 07:53:38;;;;;;;2.70;0.52;;;17.90;54.30;;;;;;6118540;23;20186;-86
2023/10/23 07:56:09;;;;;;;2.63;0.50;;;18.00;54.20;;;;;;6117372;23;20150;-82
2023/10/23 07:58:36;;;;;;;0.95;0.52;;;18.00;54.10;;;;;;6068781;23;20157;-85
2023/10/23 08:01:05;;;;;;;2.53;0.60;;;18.00;54.20;;;;;;6142121;23;20550;-85
2023/10/23 08:03:34;;;;;;;0.60;0.60;;;17.90;54.40;;;;;;6116122;23;20150;-87
2023/10/23 08:06:01;;;;;;;0.80;0.70;;;17.90;54.40;;;;;;6114427;23;20226;-83
2023/10/23 08:08:27;;;;;;;0.63;0.52;;;18.00;54.50;;;;;;6138890;23;20139;-87
2023/10/23 08:10:56;;;;;;;3.47;0.65;;;17.90;54.60;;;;;;6116423;23;20151;-86
2023/10/23 08:13:25;;;;;;;3.80;0.60;;;17.80;54.50;;;;;;6115779;23;20191;-84
2023/10/23 08:15:50;;;;;;;1.10;0.60;;;17.80;54.70;;;;;;6093087;23;20590;-82
2023/10/23 08:18:25;;;;;;;1.85;0.90;;;17.90;54.70;;;;;;6144453;23;20174;-82
2023/10/23 08:20:54;;;;;;;3.25;0.70;;;17.90;54.90;;;;;;6119114;23;20498;-83
2023/10/23 08:23:26;;;;;;;3.10;0.93;;;17.90;54.90;;;;;;6117881;23;20173;-83
2023/10/23 08:25:54;;;;;;;7.05;0.70;;;18.00;54.80;;;;;;6020818;23;20250;-83
2023/10/23 08:28:22;;;;;;;1.05;0.50;;;18.00;54.80;;;;;;5997227;23;20160;-83
2023/10/23 08:31:10;;;;;;;;;;;;;;;;;;;;;
2023/10/23 08:33:45;;;;;;;2.10;0.60;;;18.10;55.00;;;;;;5960568;23;20500;-82
2023/10/23 08:36:44;;;;;;;3.25;0.50;;;18.00;55.10;;;;;;6001370;23;20236;-83
2023/10/23 08:39:24;;;;;;;;;;;;;;;;;;;;;
2023/10/23 08:42:04;;;;;;;2.78;0.60;;;17.90;55.00;;;;;;5926680;24;20180;-83
2023/10/23 08:44:43;;;;;;;4.32;0.50;;;17.90;55.10;;;;;;5936738;24;20163;-85
2023/10/23 08:47:24;;;;;;;0.85;0.50;;;17.80;55.00;;;;;;5892149;24;20152;-83
2023/10/23 08:49:59;;;;;;;2.88;0.70;;;17.90;55.10;;;;;;5886154;24;20168;-81
2023/10/23 08:52:26;;;;;;;0.40;0.40;;;17.90;55.10;;;;;;5922553;24;20269;-81
2023/10/23 08:54:56;;;;;;;3.10;0.65;;;17.90;55.00;;;;;;5930720;24;20165;-83
2023/10/23 08:57:24;;;;;;;2.67;0.60;;;17.90;55.10;;;;;;5919645;24;20157;-82
2023/10/23 08:59:54;;;;;;;0.77;0.77;;;17.90;55.20;;;;;;5930004;24;20157;-81
2023/10/23 09:02:26;;;;;;;2.03;0.60;;;17.90;55.10;;;;;;5932591;24;20165;-82
2023/10/23 09:05:03;;;;;;;2.35;0.70;;;17.90;55.10;;;;;;5966461;24;20171;-85
2023/10/23 09:07:31;;;;;;;0.50;0.50;;;18.00;55.10;;;;;;5967118;24;20158;-82
2023/10/23 09:10:07;;;;;;;0.73;0.60;;;18.00;55.20;;;;;;6001967;23;20610;-85
2023/10/23 09:12:37;;;;;;;0.95;0.60;;;18.00;55.20;;;;;;6033515;23;20200;-84
2023/10/23 09:15:57;;;;;;;;;;;;;;;;;;;;;
2023/10/23 09:18:23;;;;;;;0.50;0.50;;;18.00;55.50;;;;;;5988802;24;20183;-85
2023/10/23 09:21:04;;;;;;;1.42;0.50;;;18.00;55.00;;;;;;5996869;23;20479;-83
2023/10/23 09:23:35;;;;;;;0.95;0.50;;;18.00;55.00;;;;;;6018187;23;20157;-83
2023/10/23 09:26:08;;;;;;;1.90;0.47;;;18.00;55.10;;;;;;6000188;23;20155;-87
2023/10/23 09:28:42;;;;;;;1.23;0.77;;;18.00;55.20;;;;;;6011058;23;20166;-83
2023/10/23 09:31:08;;;;;;;0.65;0.60;;;18.00;55.20;;;;;;5981116;24;20167;-84
2023/10/23 09:33:34;;;;;;;2.83;0.60;;;18.00;54.90;;;;;;5933081;24;20247;-85
2023/10/23 09:36:04;;;;;;;1.60;0.50;;;18.00;54.80;;;;;;5938942;24;20148;-85
2023/10/23 09:38:32;;;;;;;0.50;0.50;;;18.00;54.80;;;;;;5939933;24;20159;-85
2023/10/23 09:41:01;;;;;;;1.50;0.52;;;18.00;55.00;;;;;;5941172;24;20207;-86
2023/10/23 09:43:37;;;;;;;1.00;0.50;;;18.00;54.70;;;;;;5939516;24;20696;-84
2023/10/23 09:46:08;;;;;;;1.90;0.50;;;18.00;54.60;;;;;;5913102;24;20160;-84
2023/10/23 09:48:43;;;;;;;0.90;0.70;;;18.00;54.60;;;;;;5890415;24;20304;-83
2023/10/23 09:51:25;;;;;;;;;;;;;;;;;;;;;
2023/10/23 09:53:59;;;;;;;0.82;0.70;;;18.00;54.60;;;;;;5935098;24;20691;-87
2023/10/23 09:56:57;;;;;;;2.25;0.60;;;17.90;54.50;;;;;;5877458;24;20186;-85
2023/10/23 09:59:38;;;;;;;0.43;0.43;;;17.90;54.60;;;;;;5875028;24;20174;-89
2023/10/23 10:02:07;;;;;;;0.73;0.52;;;17.90;54.40;;;;;;5873746;24;20552;-88
2023/10/23 10:05:12;;;;;;;0.50;0.50;;;17.90;54.80;;;;;;5942254;24;20153;-86
2023/10/23 10:07:58;;;;;;;2.55;0.60;;;18.00;54.70;;;;;;5911068;24;20157;-84
2023/10/23 10:10:26;;;;;;;0.40;0.40;;;18.00;54.70;;;;;;5883421;24;20160;-86
2023/10/23 10:12:55;;;;;;;2.85;0.60;;;18.00;54.40;;;;;;5827391;24;20259;-88
2023/10/23 10:15:24;;;;;;;0.43;0.43;;;18.00;54.40;;;;;;5807791;24;20190;-85
2023/10/23 10:17:52;;;;;;;0.77;0.40;;;18.10;54.40;;;;;;5804685;24;20166;-85
2023/10/23 10:20:22;;;;;;;0.43;0.43;;;18.00;54.50;;;;;;5803063;24;20224;-84
2023/10/23 10:23:07;;;;;;;1.08;0.60;;;18.00;54.40;;;;;;5746285;24;20611;-84
2023/10/23 10:25:37;;;;;;;0.73;0.70;;;18.00;54.20;;;;;;5746178;24;20154;-87
2023/10/23 10:28:16;;;;;;;;;;;;;;;;;;;;;
2023/10/23 10:30:54;;;;;;;0.43;0.43;;;18.00;54.10;;;;;;5770311;24;20195;-84
2023/10/23 10:33:22;;;;;;;0.93;0.63;;;18.00;54.10;;;;;;5811032;24;20285;-84
2023/10/23 10:35:56;;;;;;;0.65;0.60;;;18.00;53.90;;;;;;5852229;24;20167;-85
2023/10/23 10:38:31;;;;;;;0.40;0.40;;;18.00;53.90;;;;;;5831094;24;20521;-84
2023/10/23 10:41:19;;;;;;;0.65;0.40;;;18.00;53.90;;;;;;5830556;24;20193;-85
2023/10/23 10:44:02;;;;;;;1.33;0.45;;;18.10;54.00;;;;;;5780927;24;20331;-84
2023/10/23 10:46:31;;;;;;;0.45;0.45;;;18.10;54.00;;;;;;5773974;24;20160;-84
2023/10/23 10:48:58;;;;;;;0.40;0.40;;;18.10;53.80;;;;;;5791462;24;20212;-86
2023/10/23 10:51:27;;;;;;;0.68;0.68;;;18.00;53.90;;;;;;5771174;24;20175;-87
2023/10/23 10:54:05;;;;;;;0.68;0.60;;;18.00;53.90;;;;;;5836535;24;20187;-83
2023/10/23 10:56:34;;;;;;;1.83;0.60;;;18.00;54.00;;;;;;5829253;24;20604;-83
2023/10/23 10:59:00;;;;;;;1.77;0.60;;;17.90;53.90;;;;;;5805192;24;20218;-84
2023/10/23 11:01:27;;;;;;;0.65;0.50;;;18.00;53.90;;;;;;5821981;24;20498;-85
2023/10/23 11:03:53;;;;;;;0.52;0.50;;;18.00;54.00;;;;;;5820288;24;20482;-82
2023/10/23 11:06:19;;;;;;;0.40;0.40;;;17.90;53.90;;;;;;5799399;24;20257;-83
2023/10/23 11:08:48;;;;;;;0.55;0.55;;;18.00;53.90;;;;;;5800894;24;20167;-85
2023/10/23 11:11:24;;;;;;;0.50;0.50;;;18.00;53.90;;;;;;5841825;24;20222;-85
2023/10/23 11:13:52;;;;;;;0.55;0.52;;;18.00;53.90;;;;;;5839311;24;20569;-83
2023/10/23 11:16:18;;;;;;;0.82;0.65;;;18.00;53.90;;;;;;5856850;24;20519;-84
2023/10/23 11:18:47;;;;;;;1.67;0.60;;;18.00;53.90;;;;;;5929444;24;20160;-84
2023/10/23 11:21:21;;;;;;;0.40;0.40;;;18.00;53.90;;;;;;5945037;24;20155;-83
2023/10/23 11:23:47;;;;;;;0.85;0.60;;;18.00;53.90;;;;;;5965650;24;20230;-85
2023/10/23 11:26:13;;;;;;;0.57;0.50;;;18.00;53.70;;;;;;5959299;24;20186;-84
2023/10/23 11:28:52;;;;;;;;;;;;;;;;;;;;;
2023/10/23 11:31:23;;;;;;;0.65;0.50;;;18.00;54.30;;;;;;5998490;23;20274;-84
2023/10/23 11:33:54;;;;;;;0.90;0.60;;;18.00;53.60;;;;;;5994975;23;20210;-83
2023/10/23 11:36:21;;;;;;;0.65;0.65;;;18.00;53.60;;;;;;6043857;23;20206;-84
2023/10/23 11:38:48;;;;;;;0.85;0.50;;;18.00;53.70;;;;;;5994535;23;20169;-85
2023/10/23 11:41:14;;;;;;;0.73;0.60;;;18.00;53.60;;;;;;6145887;23;20143;-87
2023/10/23 11:43:42;;;;;;;0.50;0.40;;;17.90;53.60;;;;;;6113348;23;20150;-88
2023/10/23 11:46:08;;;;;;;0.73;0.60;;;17.90;53.70;;;;;;6139055;23;20147;-86
2023/10/23 11:48:36;;;;;;;0.85;0.47;;;18.00;53.70;;;;;;6113731;23;20721;-85
2023/10/23 11:51:02;;;;;;;1.90;0.70;;;18.00;53.80;;;;;;6148599;23;20139;-88
2023/10/23 11:53:33;;;;;;;0.50;0.50;;;18.00;53.80;;;;;;6162888;23;20189;-87
2023/10/23 11:55:59;;;;;;;0.55;0.50;;;18.00;53.80;;;;;;6138345;23;20128;-87
2023/10/23 11:58:27;;;;;;;0.60;0.60;;;18.00;53.70;;;;;;6109366;23;20139;-87
2023/10/23 12:00:52;;;;;;;0.52;0.40;;;18.00;53.70;;;;;;6111110;23;20144;-85
2023/10/23 12:03:21;;;;;;;0.90;0.65;;;18.00;53.70;;;;;;6159500;23;20230;-86
2023/10/23 12:05:49;;;;;;;0.50;0.50;;;18.00;53.80;;;;;;6185677;23;20131;-87
2023/10/23 12:08:23;;;;;;;1.00;0.60;;;18.00;53.80;;;;;;6165114;23;20199;-86
2023/10/23 12:10:54;;;;;;;0.60;0.55;;;18.00;53.60;;;;;;6139795;23;20145;-83
2023/10/23 12:13:20;;;;;;;1.65;0.63;;;18.00;53.70;;;;;;6106416;23;20548;-86
2023/10/23 12:15:56;;;;;;;0.50;0.50;;;18.00;53.60;;;;;;6134926;23;20186;-86
2023/10/23 12:18:23;;;;;;;0.60;0.60;;;18.00;53.70;;;;;;6136114;23;20222;-87
2023/10/23 12:20:49;;;;;;;0.65;0.45;;;18.00;53.70;;;;;;6159793;23;20134;-87
2023/10/23 12:23:22;;;;;;;0.60;0.60;;;18.00;53.70;;;;;;6158775;23;20135;-85
2023/10/23 12:25:48;;;;;;;0.68;0.57;;;18.00;53.70;;;;;;6136002;23;20153;-85
2023/10/23 12:28:14;;;;;;;1.13;0.55;;;18.00;53.50;;;;;;6134902;23;20138;-83
2023/10/23 12:30:42;;;;;;;0.52;0.45;;;18.00;53.50;;;;;;6105300;23;20147;-86
2023/10/23 12:33:08;;;;;;;0.60;0.60;;;18.10;53.50;;;;;;6123227;23;20207;-85
2023/10/23 12:35:34;;;;;;;0.52;0.52;;;18.10;53.50;;;;;;6051069;23;20167;-88
2023/10/23 12:37:59;;;;;;;0.45;0.45;;;18.10;53.50;;;;;;6072053;23;20159;-89
2023/10/23 12:40:25;;;;;;;0.55;0.52;;;18.10;53.30;;;;;;6050715;23;20173;-87
2023/10/23 12:42:52;;;;;;;0.50;0.50;;;18.10;53.30;;;;;;6098230;23;20152;-87
2023/10/23 12:45:17;;;;;;;1.17;0.60;;;18.10;53.20;;;;;;6074482;23;20147;-87
2023/10/23 12:47:43;;;;;;;0.40;0.40;;;18.10;53.40;;;;;;6073966;23;20560;-86
2023/10/23 12:50:09;;;;;;;0.75;0.50;;;18.10;53.40;;;;;;6050116;23;20194;-87
2023/10/23 12:52:36;;;;;;;1.17;0.80;;;18.10;53.40;;;;;;6074064;23;20239;-87
2023/10/23 12:55:04;;;;;;;0.50;0.50;;;17.90;53.30;;;;;;6095613;23;20241;-88
2023/10/23 12:57:31;;;;;;;0.68;0.50;;;18.00;53.40;;;;;;6095978;23;20144;-86
2023/10/23 12:59:57;;;;;;;0.50;0.50;;;18.00;53.40;;;;;;6072640;23;20140;-87
2023/10/23 13:02:25;;;;;;;0.45;0.45;;;18.00;53.20;;;;;;6120804;23;20151;-85
2023/10/23 13:04:51;;;;;;;1.73;0.40;;;18.10;53.30;;;;;;6110468;23;20286;-86